Terminal Aerodrome Forecast
Issued by NWS

Home | Current Version | Previous Version | Text Only | Print | Product List | Glossary On
Versions: 1 2 3 4 5 6 7 8 9 10 11 12 13 14 15
000
FTPA31 PHFO 312320
TAFHJH
TAF
PHJH 312320Z 0100/0124 04018G28KT P6SM VCSH SCT015 BKN025
      AMD NOT SKED 0104/0118=

USA.gov is the U.S. government's official web portal to all federal, state and local government web resources and services.